עמוד ראשי
METAR-TAF:

METAR-TAF

שדות תעופה :

קורור, Babeldaob, פלאו

קו רוחב: 07-22N, קו אורך: 134-32E, גובה: 54מטר

תצפית מזג אוויר נוכחית

הדו"ח נערך לפני 55דקות, בשעה 01:50 UTC
רוח 12קשר מכיוון דרום/דרום-מערב עם משבים עד 20קשר
טמפרטורת 32 צלסיוס
לחות 71%
לחץ 1010 hPa
ראות: 16.1קילומטר
עננים בינוניים בגובה 1600רגל , קומולונימבוס.
עננים בינוניים בגובה 13000רגל
עננים בינוניים בגובה 30000רגל
ממטרים במרחב

METAR: PTRO 200150Z 20012G20KT 10SM VCSH BKN016CB BKN130 BKN300 32/26 A2982 RMK VCSH W-N CB ALQDS

זמן: 11:45 (02:45 UTC)

תחזית

הדו"ח נערך לפני 3 שעות ו 11דקות, בשעה 23:34 UTC
תחזית בתוקף מ 20 ב 00 UTC עד 20 ב 24 UTC
רוח 7קשר מכיוון דרום-מערב
ראות: 10קילומטר
עננים פזורים בגובה 1600רגל
עננים בינוניים בגובה 12000רגל
ממטרים במרחב
זמנית מ -
20 ב 01 UTC עד 20 ב 05 UTC
עננים בינוניים בגובה 1400רגל
ממטרי גשם קלים,

TAF: PTRO 192334Z 2000/2024 22007KT P6SM VCSH SCT016 BKN120 TEMPO 2001/2005 -SHRA BKN014

תצפיות ותחזיות מזג אוויר לגבי יותר מ- 4,000 שדות תעופה ברחבי העולם. דוחות METAR ו- TAF.

התחנות הזמינות מסומנות בנקודות צהובות ואדומות על גבי המפה.

העבר את העכבר לנקודה הצבעונית על מנת לראות את שם התחנה.

לאחר מכן, לחץ כדי לראות את תוכן ואת תחזיות מזג האוויר.

כדי לשנות את המפה: לחץ על הכפתורים הירוקים עם הפלוס השחור כדי להתקרב; על הכפתור הירוק עם המקף כדי להתרחק; או בחיצים הירוקים למפות סמוכות.


METAR-TAF: